sensor_id;sensor_type;location;lat;lon;timestamp;P1;durP1;ratioP1;P2;durP2;ratioP2
50337;SDS011;46221;51.178;5.900;2023-02-15T00:01:59;10.15;;;7.03;;
50337;SDS011;46221;51.178;5.900;2023-02-15T00:04:26;11.30;;;7.32;;
50337;SDS011;46221;51.178;5.900;2023-02-15T00:07:15;10.07;;;7.47;;
50337;SDS011;46221;51.178;5.900;2023-02-15T00:09:44;10.25;;;7.22;;
50337;SDS011;46221;51.178;5.900;2023-02-15T00:12:11;11.68;;;7.70;;
50337;SDS011;46221;51.178;5.900;2023-02-15T00:14:38;11.45;;;7.38;;
50337;SDS011;46221;51.178;5.900;2023-02-15T00:17:04;9.52;;;7.20;;
50337;SDS011;46221;51.178;5.900;2023-02-15T00:19:30;9.15;;;6.78;;
50337;SDS011;46221;51.178;5.900;2023-02-15T00:21:57;10.15;;;7.03;;
50337;SDS011;46221;51.178;5.900;2023-02-15T00:24:23;9.57;;;6.60;;
50337;SDS011;46221;51.178;5.900;2023-02-15T00:26:50;9.63;;;7.20;;
50337;SDS011;46221;51.178;5.900;2023-02-15T00:29:17;9.80;;;6.70;;
50337;SDS011;46221;51.178;5.900;2023-02-15T00:31:45;10.32;;;7.10;;
50337;SDS011;46221;51.178;5.900;2023-02-15T00:34:12;8.65;;;6.40;;
50337;SDS011;46221;51.178;5.900;2023-02-15T00:36:46;8.73;;;6.97;;
50337;SDS011;46221;51.178;5.900;2023-02-15T00:39:14;9.52;;;6.32;;
50337;SDS011;46221;51.178;5.900;2023-02-15T00:41:41;10.55;;;6.70;;
50337;SDS011;46221;51.178;5.900;2023-02-15T00:44:08;10.20;;;7.00;;
50337;SDS011;46221;51.178;5.900;2023-02-15T00:46:35;8.93;;;7.25;;
50337;SDS011;46221;51.178;5.900;2023-02-15T00:49:02;9.82;;;6.93;;
50337;SDS011;46221;51.178;5.900;2023-02-15T00:51:29;8.77;;;6.35;;
50337;SDS011;46221;51.178;5.900;2023-02-15T00:53:56;10.82;;;7.35;;
50337;SDS011;46221;51.178;5.900;2023-02-15T00:56:22;9.52;;;6.80;;
50337;SDS011;46221;51.178;5.900;2023-02-15T00:58:49;9.52;;;6.95;;
50337;SDS011;46221;51.178;5.900;2023-02-15T01:01:16;8.20;;;6.60;;
50337;SDS011;46221;51.178;5.900;2023-02-15T01:03:44;9.02;;;6.72;;
50337;SDS011;46221;51.178;5.900;2023-02-15T01:06:13;11.05;;;7.35;;
50337;SDS011;46221;51.178;5.900;2023-02-15T01:08:40;10.32;;;6.55;;
50337;SDS011;46221;51.178;5.900;2023-02-15T01:11:15;8.35;;;6.43;;
50337;SDS011;46221;51.178;5.900;2023-02-15T01:13:52;9.05;;;6.43;;
50337;SDS011;46221;51.178;5.900;2023-02-15T01:16:23;10.35;;;7.22;;
50337;SDS011;46221;51.178;5.900;2023-02-15T01:18:51;10.23;;;7.30;;
50337;SDS011;46221;51.178;5.900;2023-02-15T01:21:18;9.77;;;6.65;;
50337;SDS011;46221;51.178;5.900;2023-02-15T01:23:46;9.38;;;6.45;;
50337;SDS011;46221;51.178;5.900;2023-02-15T01:26:13;8.77;;;6.07;;
50337;SDS011;46221;51.178;5.900;2023-02-15T01:28:40;9.52;;;6.22;;
50337;SDS011;46221;51.178;5.900;2023-02-15T01:31:14;9.02;;;6.82;;
50337;SDS011;46221;51.178;5.900;2023-02-15T01:33:43;8.32;;;6.53;;
50337;SDS011;46221;51.178;5.900;2023-02-15T01:36:10;8.38;;;6.05;;
50337;SDS011;46221;51.178;5.900;2023-02-15T01:38:36;7.35;;;5.95;;
50337;SDS011;46221;51.178;5.900;2023-02-15T01:41:03;10.43;;;6.97;;
50337;SDS011;46221;51.178;5.900;2023-02-15T01:43:52;8.35;;;6.35;;
50337;SDS011;46221;51.178;5.900;2023-02-15T01:49:15;9.50;;;6.47;;
50337;SDS011;46221;51.178;5.900;2023-02-15T01:51:45;8.10;;;6.22;;
50337;SDS011;46221;51.178;5.900;2023-02-15T01:54:19;9.40;;;6.65;;
50337;SDS011;46221;51.178;5.900;2023-02-15T01:56:50;9.93;;;6.97;;
50337;SDS011;46221;51.178;5.900;2023-02-15T01:59:19;9.02;;;6.35;;
50337;SDS011;46221;51.178;5.900;2023-02-15T02:01:50;8.05;;;6.32;;
50337;SDS011;46221;51.178;5.900;2023-02-15T02:04:25;8.15;;;6.75;;
50337;SDS011;46221;51.178;5.900;2023-02-15T02:06:59;10.90;;;6.30;;
50337;SDS011;46221;51.178;5.900;2023-02-15T02:09:26;9.38;;;6.50;;
50337;SDS011;46221;51.178;5.900;2023-02-15T02:11:53;10.73;;;7.00;;
50337;SDS011;46221;51.178;5.900;2023-02-15T02:14:22;9.65;;;6.63;;
50337;SDS011;46221;51.178;5.900;2023-02-15T02:23:07;8.52;;;6.68;;
50337;SDS011;46221;51.178;5.900;2023-02-15T02:35:05;8.63;;;6.35;;
50337;SDS011;46221;51.178;5.900;2023-02-15T02:40:32;10.50;;;6.97;;
50337;SDS011;46221;51.178;5.900;2023-02-15T02:45:47;11.95;;;7.30;;
50337;SDS011;46221;51.178;5.900;2023-02-15T02:48:24;10.95;;;6.60;;
50337;SDS011;46221;51.178;5.900;2023-02-15T02:50:53;10.63;;;7.03;;
50337;SDS011;46221;51.178;5.900;2023-02-15T02:53:20;9.30;;;6.93;;
50337;SDS011;46221;51.178;5.900;2023-02-15T02:55:47;10.10;;;6.97;;
50337;SDS011;46221;51.178;5.900;2023-02-15T03:06:51;10.93;;;7.13;;
50337;SDS011;46221;51.178;5.900;2023-02-15T03:08:56;10.35;;;7.30;;
50337;SDS011;46221;51.178;5.900;2023-02-15T03:11:27;10.73;;;7.13;;
50337;SDS011;46221;51.178;5.900;2023-02-15T03:13:54;8.88;;;6.53;;
50337;SDS011;46221;51.178;5.900;2023-02-15T03:16:21;10.27;;;6.72;;
50337;SDS011;46221;51.178;5.900;2023-02-15T03:21:41;8.35;;;6.03;;
50337;SDS011;46221;51.178;5.900;2023-02-15T03:24:17;9.32;;;6.82;;
50337;SDS011;46221;51.178;5.900;2023-02-15T03:26:48;8.32;;;6.30;;
50337;SDS011;46221;51.178;5.900;2023-02-15T03:29:18;9.73;;;6.88;;
50337;SDS011;46221;51.178;5.900;2023-02-15T03:31:50;8.88;;;7.05;;
50337;SDS011;46221;51.178;5.900;2023-02-15T03:34:21;10.18;;;6.43;;
50337;SDS011;46221;51.178;5.900;2023-02-15T03:39:38;10.15;;;7.22;;
50337;SDS011;46221;51.178;5.900;2023-02-15T03:42:13;10.18;;;7.32;;
50337;SDS011;46221;51.178;5.900;2023-02-15T03:47:51;9.07;;;6.63;;
50337;SDS011;46221;51.178;5.900;2023-02-15T03:50:21;8.98;;;6.93;;
50337;SDS011;46221;51.178;5.900;2023-02-15T03:53:11;9.93;;;6.95;;
50337;SDS011;46221;51.178;5.900;2023-02-15T03:55:41;10.93;;;6.97;;
50337;SDS011;46221;51.178;5.900;2023-02-15T03:58:08;9.10;;;6.78;;
50337;SDS011;46221;51.178;5.900;2023-02-15T04:00:57;10.43;;;7.88;;
50337;SDS011;46221;51.178;5.900;2023-02-15T04:04:04;9.10;;;6.47;;
50337;SDS011;46221;51.178;5.900;2023-02-15T04:06:36;11.00;;;7.80;;
50337;SDS011;46221;51.178;5.900;2023-02-15T04:09:03;11.02;;;7.07;;
50337;SDS011;46221;51.178;5.900;2023-02-15T04:11:47;12.40;;;7.22;;
50337;SDS011;46221;51.178;5.900;2023-02-15T04:14:14;10.20;;;7.72;;
50337;SDS011;46221;51.178;5.900;2023-02-15T04:16:59;9.63;;;6.97;;
50337;SDS011;46221;51.178;5.900;2023-02-15T04:19:25;9.73;;;7.00;;
50337;SDS011;46221;51.178;5.900;2023-02-15T04:22:10;10.32;;;7.32;;
50337;SDS011;46221;51.178;5.900;2023-02-15T04:24:56;10.10;;;7.07;;
50337;SDS011;46221;51.178;5.900;2023-02-15T04:27:44;11.63;;;7.25;;
50337;SDS011;46221;51.178;5.900;2023-02-15T04:30:13;10.55;;;7.32;;
50337;SDS011;46221;51.178;5.900;2023-02-15T04:32:41;11.57;;;7.57;;
50337;SDS011;46221;51.178;5.900;2023-02-15T04:35:08;11.15;;;7.88;;
50337;SDS011;46221;51.178;5.900;2023-02-15T04:37:35;8.95;;;6.63;;
50337;SDS011;46221;51.178;5.900;2023-02-15T04:40:02;10.40;;;6.97;;
50337;SDS011;46221;51.178;5.900;2023-02-15T04:42:30;10.38;;;7.32;;
50337;SDS011;46221;51.178;5.900;2023-02-15T04:44:56;10.95;;;7.40;;
50337;SDS011;46221;51.178;5.900;2023-02-15T04:47:23;11.80;;;8.00;;
50337;SDS011;46221;51.178;5.900;2023-02-15T04:49:50;10.95;;;7.90;;
50337;SDS011;46221;51.178;5.900;2023-02-15T04:52:16;9.98;;;7.22;;
50337;SDS011;46221;51.178;5.900;2023-02-15T04:54:46;10.23;;;7.57;;
50337;SDS011;46221;51.178;5.900;2023-02-15T04:57:13;9.57;;;7.05;;
50337;SDS011;46221;51.178;5.900;2023-02-15T04:59:39;9.90;;;7.03;;
50337;SDS011;46221;51.178;5.900;2023-02-15T05:02:06;10.27;;;7.60;;
50337;SDS011;46221;51.178;5.900;2023-02-15T05:04:32;9.98;;;7.38;;
50337;SDS011;46221;51.178;5.900;2023-02-15T05:06:59;10.68;;;7.05;;
50337;SDS011;46221;51.178;5.900;2023-02-15T05:09:25;11.38;;;7.93;;
50337;SDS011;46221;51.178;5.900;2023-02-15T05:11:51;10.35;;;8.00;;
50337;SDS011;46221;51.178;5.900;2023-02-15T05:14:18;10.85;;;7.75;;
50337;SDS011;46221;51.178;5.900;2023-02-15T05:16:44;10.77;;;7.70;;
50337;SDS011;46221;51.178;5.900;2023-02-15T05:19:11;10.30;;;6.75;;
50337;SDS011;46221;51.178;5.900;2023-02-15T05:21:38;10.27;;;7.20;;
50337;SDS011;46221;51.178;5.900;2023-02-15T05:24:04;10.15;;;7.22;;
50337;SDS011;46221;51.178;5.900;2023-02-15T05:26:54;11.38;;;7.90;;
50337;SDS011;46221;51.178;5.900;2023-02-15T05:29:39;11.65;;;7.82;;
50337;SDS011;46221;51.178;5.900;2023-02-15T05:32:06;10.82;;;8.07;;
50337;SDS011;46221;51.178;5.900;2023-02-15T05:34:32;10.93;;;7.60;;
50337;SDS011;46221;51.178;5.900;2023-02-15T05:36:59;10.00;;;7.30;;
50337;SDS011;46221;51.178;5.900;2023-02-15T05:39:25;10.10;;;6.97;;
50337;SDS011;46221;51.178;5.900;2023-02-15T05:41:52;10.23;;;6.68;;
50337;SDS011;46221;51.178;5.900;2023-02-15T05:44:18;9.07;;;6.68;;
50337;SDS011;46221;51.178;5.900;2023-02-15T05:46:44;9.45;;;7.00;;
50337;SDS011;46221;51.178;5.900;2023-02-15T05:49:11;9.32;;;7.00;;
50337;SDS011;46221;51.178;5.900;2023-02-15T05:51:37;12.02;;;6.90;;
50337;SDS011;46221;51.178;5.900;2023-02-15T05:54:04;8.48;;;5.80;;
50337;SDS011;46221;51.178;5.900;2023-02-15T05:56:30;11.35;;;6.50;;
50337;SDS011;46221;51.178;5.900;2023-02-15T05:58:57;9.00;;;6.13;;
50337;SDS011;46221;51.178;5.900;2023-02-15T06:01:23;9.25;;;6.35;;
50337;SDS011;46221;51.178;5.900;2023-02-15T06:03:50;11.05;;;7.32;;
50337;SDS011;46221;51.178;5.900;2023-02-15T06:06:16;10.50;;;7.10;;
50337;SDS011;46221;51.178;5.900;2023-02-15T06:08:43;11.23;;;7.18;;
50337;SDS011;46221;51.178;5.900;2023-02-15T06:11:13;9.63;;;6.38;;
50337;SDS011;46221;51.178;5.900;2023-02-15T06:13:40;11.18;;;7.30;;
50337;SDS011;46221;51.178;5.900;2023-02-15T06:16:06;14.48;;;8.07;;
50337;SDS011;46221;51.178;5.900;2023-02-15T06:18:33;11.32;;;6.90;;
50337;SDS011;46221;51.178;5.900;2023-02-15T06:20:59;12.18;;;7.90;;
50337;SDS011;46221;51.178;5.900;2023-02-15T06:23:26;12.25;;;7.40;;
50337;SDS011;46221;51.178;5.900;2023-02-15T06:25:52;11.40;;;7.10;;
50337;SDS011;46221;51.178;5.900;2023-02-15T06:28:19;13.65;;;7.55;;
50337;SDS011;46221;51.178;5.900;2023-02-15T06:30:46;12.23;;;8.13;;
50337;SDS011;46221;51.178;5.900;2023-02-15T06:33:12;13.27;;;7.30;;
50337;SDS011;46221;51.178;5.900;2023-02-15T06:35:39;14.02;;;8.02;;
50337;SDS011;46221;51.178;5.900;2023-02-15T06:38:05;12.02;;;7.95;;
50337;SDS011;46221;51.178;5.900;2023-02-15T06:40:31;12.55;;;7.60;;
50337;SDS011;46221;51.178;5.900;2023-02-15T06:42:58;10.68;;;8.45;;
50337;SDS011;46221;51.178;5.900;2023-02-15T06:45:24;12.20;;;7.85;;
50337;SDS011;46221;51.178;5.900;2023-02-15T06:47:51;12.95;;;7.90;;
50337;SDS011;46221;51.178;5.900;2023-02-15T06:50:17;13.23;;;7.88;;
50337;SDS011;46221;51.178;5.900;2023-02-15T06:52:44;11.82;;;7.47;;
50337;SDS011;46221;51.178;5.900;2023-02-15T06:55:10;11.68;;;8.38;;
50337;SDS011;46221;51.178;5.900;2023-02-15T06:57:37;12.57;;;7.35;;
50337;SDS011;46221;51.178;5.900;2023-02-15T07:00:03;11.55;;;7.43;;
50337;SDS011;46221;51.178;5.900;2023-02-15T07:02:31;13.02;;;7.93;;
50337;SDS011;46221;51.178;5.900;2023-02-15T07:04:57;9.90;;;7.15;;
50337;SDS011;46221;51.178;5.900;2023-02-15T07:07:24;14.40;;;8.05;;
50337;SDS011;46221;51.178;5.900;2023-02-15T07:09:53;12.27;;;7.18;;
50337;SDS011;46221;51.178;5.900;2023-02-15T07:12:20;13.27;;;7.20;;
50337;SDS011;46221;51.178;5.900;2023-02-15T07:15:06;11.93;;;7.65;;
50337;SDS011;46221;51.178;5.900;2023-02-15T07:17:33;12.77;;;6.82;;
50337;SDS011;46221;51.178;5.900;2023-02-15T07:20:09;10.90;;;7.60;;
50337;SDS011;46221;51.178;5.900;2023-02-15T07:25:05;10.90;;;7.40;;
50337;SDS011;46221;51.178;5.900;2023-02-15T07:27:33;12.25;;;7.13;;
50337;SDS011;46221;51.178;5.900;2023-02-15T07:29:59;9.63;;;7.20;;
50337;SDS011;46221;51.178;5.900;2023-02-15T07:32:27;9.65;;;7.07;;
50337;SDS011;46221;51.178;5.900;2023-02-15T07:34:55;13.32;;;7.38;;
50337;SDS011;46221;51.178;5.900;2023-02-15T07:37:22;11.38;;;7.10;;
50337;SDS011;46221;51.178;5.900;2023-02-15T07:39:48;9.73;;;6.07;;
50337;SDS011;46221;51.178;5.900;2023-02-15T07:42:15;13.25;;;7.05;;
50337;SDS011;46221;51.178;5.900;2023-02-15T07:44:41;11.63;;;7.90;;
50337;SDS011;46221;51.178;5.900;2023-02-15T07:47:08;9.25;;;6.57;;
50337;SDS011;46221;51.178;5.900;2023-02-15T07:49:34;11.32;;;7.85;;
50337;SDS011;46221;51.178;5.900;2023-02-15T07:52:01;10.85;;;6.90;;
50337;SDS011;46221;51.178;5.900;2023-02-15T07:54:28;10.60;;;7.13;;
50337;SDS011;46221;51.178;5.900;2023-02-15T07:56:54;11.35;;;7.35;;
50337;SDS011;46221;51.178;5.900;2023-02-15T07:59:21;10.25;;;7.05;;
50337;SDS011;46221;51.178;5.900;2023-02-15T08:01:47;11.30;;;7.78;;
50337;SDS011;46221;51.178;5.900;2023-02-15T08:04:14;8.88;;;6.72;;
50337;SDS011;46221;51.178;5.900;2023-02-15T08:06:41;9.55;;;7.05;;
50337;SDS011;46221;51.178;5.900;2023-02-15T08:09:08;9.95;;;7.45;;
50337;SDS011;46221;51.178;5.900;2023-02-15T08:11:35;12.73;;;8.85;;
50337;SDS011;46221;51.178;5.900;2023-02-15T08:14:07;12.93;;;8.15;;
50337;SDS011;46221;51.178;5.900;2023-02-15T08:19:10;12.30;;;8.05;;
50337;SDS011;46221;51.178;5.900;2023-02-15T08:21:43;12.23;;;8.90;;
50337;SDS011;46221;51.178;5.900;2023-02-15T08:24:12;13.27;;;8.82;;
50337;SDS011;46221;51.178;5.900;2023-02-15T08:26:40;14.52;;;8.30;;
50337;SDS011;46221;51.178;5.900;2023-02-15T08:29:07;13.48;;;8.15;;
50337;SDS011;46221;51.178;5.900;2023-02-15T08:31:34;12.82;;;8.50;;
50337;SDS011;46221;51.178;5.900;2023-02-15T08:34:03;10.57;;;8.35;;
50337;SDS011;46221;51.178;5.900;2023-02-15T08:36:30;11.73;;;8.02;;
50337;SDS011;46221;51.178;5.900;2023-02-15T08:39:01;11.95;;;8.13;;
50337;SDS011;46221;51.178;5.900;2023-02-15T08:41:29;10.32;;;8.05;;
50337;SDS011;46221;51.178;5.900;2023-02-15T08:43:58;12.43;;;8.68;;
50337;SDS011;46221;51.178;5.900;2023-02-15T08:46:27;12.38;;;8.73;;
50337;SDS011;46221;51.178;5.900;2023-02-15T08:48:55;11.65;;;8.45;;
50337;SDS011;46221;51.178;5.900;2023-02-15T08:51:23;12.20;;;8.82;;
50337;SDS011;46221;51.178;5.900;2023-02-15T08:54:00;11.82;;;8.30;;
50337;SDS011;46221;51.178;5.900;2023-02-15T08:56:29;13.80;;;8.88;;
50337;SDS011;46221;51.178;5.900;2023-02-15T08:58:58;10.88;;;8.52;;
50337;SDS011;46221;51.178;5.900;2023-02-15T09:01:26;11.55;;;8.15;;
50337;SDS011;46221;51.178;5.900;2023-02-15T09:03:55;10.70;;;8.00;;
50337;SDS011;46221;51.178;5.900;2023-02-15T09:06:24;11.93;;;8.52;;
50337;SDS011;46221;51.178;5.900;2023-02-15T09:08:51;12.52;;;8.45;;
50337;SDS011;46221;51.178;5.900;2023-02-15T09:11:22;10.90;;;8.20;;
50337;SDS011;46221;51.178;5.900;2023-02-15T09:13:52;12.10;;;9.02;;
50337;SDS011;46221;51.178;5.900;2023-02-15T09:16:23;11.75;;;8.38;;
50337;SDS011;46221;51.178;5.900;2023-02-15T09:18:51;11.43;;;7.97;;
50337;SDS011;46221;51.178;5.900;2023-02-15T09:21:19;12.43;;;8.25;;
50337;SDS011;46221;51.178;5.900;2023-02-15T09:23:48;11.73;;;8.73;;
50337;SDS011;46221;51.178;5.900;2023-02-15T09:26:20;10.82;;;7.93;;
50337;SDS011;46221;51.178;5.900;2023-02-15T09:28:50;11.52;;;8.38;;
50337;SDS011;46221;51.178;5.900;2023-02-15T09:31:20;11.20;;;8.32;;
50337;SDS011;46221;51.178;5.900;2023-02-15T09:33:48;13.30;;;8.63;;
50337;SDS011;46221;51.178;5.900;2023-02-15T09:36:20;13.85;;;8.70;;
50337;SDS011;46221;51.178;5.900;2023-02-15T09:38:55;14.57;;;8.70;;
50337;SDS011;46221;51.178;5.900;2023-02-15T09:50:55;13.82;;;9.88;;
50337;SDS011;46221;51.178;5.900;2023-02-15T09:56:31;13.63;;;9.35;;
50337;SDS011;46221;51.178;5.900;2023-02-15T10:10:40;14.95;;;8.85;;
50337;SDS011;46221;51.178;5.900;2023-02-15T10:16:15;14.00;;;9.57;;
50337;SDS011;46221;51.178;5.900;2023-02-15T10:21:48;15.10;;;10.48;;
50337;SDS011;46221;51.178;5.900;2023-02-15T10:27:20;13.30;;;9.60;;
50337;SDS011;46221;51.178;5.900;2023-02-15T10:30:08;15.27;;;9.15;;
50337;SDS011;46221;51.178;5.900;2023-02-15T10:32:59;13.30;;;9.57;;
50337;SDS011;46221;51.178;5.900;2023-02-15T10:44:01;13.80;;;9.50;;
50337;SDS011;46221;51.178;5.900;2023-02-15T10:55:17;14.65;;;9.75;;
50337;SDS011;46221;51.178;5.900;2023-02-15T11:00:34;13.10;;;10.23;;
50337;SDS011;46221;51.178;5.900;2023-02-15T11:08:32;13.10;;;9.70;;
50337;SDS011;46221;51.178;5.900;2023-02-15T11:11:09;12.48;;;9.55;;
50337;SDS011;46221;51.178;5.900;2023-02-15T11:13:50;12.52;;;9.38;;
50337;SDS011;46221;51.178;5.900;2023-02-15T11:16:24;14.32;;;9.95;;
50337;SDS011;46221;51.178;5.900;2023-02-15T11:18:57;11.65;;;9.63;;
50337;SDS011;46221;51.178;5.900;2023-02-15T11:21:28;12.07;;;8.23;;
50337;SDS011;46221;51.178;5.900;2023-02-15T11:24:18;10.63;;;8.43;;
50337;SDS011;46221;51.178;5.900;2023-02-15T11:26:56;12.07;;;8.88;;
50337;SDS011;46221;51.178;5.900;2023-02-15T11:29:28;10.02;;;8.32;;
50337;SDS011;46221;51.178;5.900;2023-02-15T11:32:03;11.88;;;8.85;;
50337;SDS011;46221;51.178;5.900;2023-02-15T11:34:55;12.32;;;8.80;;
50337;SDS011;46221;51.178;5.900;2023-02-15T11:37:27;11.80;;;9.48;;
50337;SDS011;46221;51.178;5.900;2023-02-15T11:40:00;12.20;;;8.68;;
50337;SDS011;46221;51.178;5.900;2023-02-15T11:42:29;11.05;;;8.18;;
50337;SDS011;46221;51.178;5.900;2023-02-15T11:47:27;12.00;;;8.32;;
50337;SDS011;46221;51.178;5.900;2023-02-15T11:49:54;11.80;;;9.05;;
50337;SDS011;46221;51.178;5.900;2023-02-15T11:52:20;12.93;;;8.82;;
50337;SDS011;46221;51.178;5.900;2023-02-15T11:54:51;11.38;;;8.70;;
50337;SDS011;46221;51.178;5.900;2023-02-15T11:57:23;10.75;;;8.30;;
50337;SDS011;46221;51.178;5.900;2023-02-15T12:00:15;11.13;;;8.07;;
50337;SDS011;46221;51.178;5.900;2023-02-15T12:02:46;11.15;;;8.02;;
50337;SDS011;46221;51.178;5.900;2023-02-15T12:05:17;11.68;;;8.40;;
50337;SDS011;46221;51.178;5.900;2023-02-15T12:07:55;10.23;;;7.88;;
50337;SDS011;46221;51.178;5.900;2023-02-15T12:10:28;9.88;;;7.50;;
50337;SDS011;46221;51.178;5.900;2023-02-15T12:13:16;11.18;;;8.23;;
50337;SDS011;46221;51.178;5.900;2023-02-15T12:15:51;11.32;;;7.75;;
50337;SDS011;46221;51.178;5.900;2023-02-15T12:18:21;9.07;;;6.82;;
50337;SDS011;46221;51.178;5.900;2023-02-15T12:21:03;10.55;;;8.13;;
50337;SDS011;46221;51.178;5.900;2023-02-15T12:26:30;11.10;;;7.90;;
50337;SDS011;46221;51.178;5.900;2023-02-15T12:28:59;9.90;;;7.60;;
50337;SDS011;46221;51.178;5.900;2023-02-15T12:31:31;10.95;;;8.05;;
50337;SDS011;46221;51.178;5.900;2023-02-15T12:33:59;10.40;;;8.02;;
50337;SDS011;46221;51.178;5.900;2023-02-15T12:36:32;11.60;;;8.25;;
50337;SDS011;46221;51.178;5.900;2023-02-15T12:44:40;11.45;;;8.02;;
50337;SDS011;46221;51.178;5.900;2023-02-15T12:47:29;12.45;;;7.68;;
50337;SDS011;46221;51.178;5.900;2023-02-15T12:50:07;12.30;;;8.05;;
50337;SDS011;46221;51.178;5.900;2023-02-15T12:52:44;13.13;;;7.70;;
50337;SDS011;46221;51.178;5.900;2023-02-15T12:55:24;12.00;;;7.97;;
50337;SDS011;46221;51.178;5.900;2023-02-15T12:58:06;12.00;;;8.43;;
50337;SDS011;46221;51.178;5.900;2023-02-15T13:00:35;11.35;;;8.23;;
50337;SDS011;46221;51.178;5.900;2023-02-15T13:03:02;12.18;;;8.70;;
50337;SDS011;46221;51.178;5.900;2023-02-15T13:08:11;10.77;;;7.70;;
50337;SDS011;46221;51.178;5.900;2023-02-15T13:10:42;13.35;;;7.97;;
50337;SDS011;46221;51.178;5.900;2023-02-15T13:13:19;10.82;;;8.35;;
50337;SDS011;46221;51.178;5.900;2023-02-15T13:15:51;12.20;;;7.97;;
50337;SDS011;46221;51.178;5.900;2023-02-15T13:18:23;14.77;;;8.07;;
50337;SDS011;46221;51.178;5.900;2023-02-15T13:21:33;12.77;;;8.90;;
50337;SDS011;46221;51.178;5.900;2023-02-15T13:24:00;11.18;;;8.02;;
50337;SDS011;46221;51.178;5.900;2023-02-15T13:26:31;13.32;;;8.45;;
50337;SDS011;46221;51.178;5.900;2023-02-15T13:29:10;10.98;;;8.10;;
50337;SDS011;46221;51.178;5.900;2023-02-15T13:31:46;11.07;;;8.05;;
50337;SDS011;46221;51.178;5.900;2023-02-15T13:34:20;12.70;;;8.13;;
50337;SDS011;46221;51.178;5.900;2023-02-15T13:37:00;12.88;;;8.60;;
50337;SDS011;46221;51.178;5.900;2023-02-15T13:51:32;13.63;;;7.60;;
50337;SDS011;46221;51.178;5.900;2023-02-15T13:54:08;13.30;;;8.63;;
50337;SDS011;46221;51.178;5.900;2023-02-15T13:56:46;12.35;;;7.80;;
50337;SDS011;46221;51.178;5.900;2023-02-15T14:10:29;11.60;;;7.47;;
50337;SDS011;46221;51.178;5.900;2023-02-15T14:13:29;12.38;;;8.25;;
50337;SDS011;46221;51.178;5.900;2023-02-15T14:19:31;11.07;;;7.45;;
50337;SDS011;46221;51.178;5.900;2023-02-15T14:22:01;12.23;;;7.70;;
50337;SDS011;46221;51.178;5.900;2023-02-15T14:24:52;12.00;;;8.27;;
50337;SDS011;46221;51.178;5.900;2023-02-15T14:29:57;11.13;;;7.78;;
50337;SDS011;46221;51.178;5.900;2023-02-15T14:32:27;10.27;;;7.43;;
50337;SDS011;46221;51.178;5.900;2023-02-15T14:35:00;11.93;;;7.72;;
50337;SDS011;46221;51.178;5.900;2023-02-15T14:48:55;12.53;;;8.00;;
50337;SDS011;46221;51.178;5.900;2023-02-15T14:54:06;13.15;;;7.97;;
50337;SDS011;46221;51.178;5.900;2023-02-15T14:56:33;12.23;;;7.93;;
50337;SDS011;46221;51.178;5.900;2023-02-15T14:59:16;15.15;;;8.23;;
50337;SDS011;46221;51.178;5.900;2023-02-15T15:01:52;12.70;;;7.80;;
50337;SDS011;46221;51.178;5.900;2023-02-15T15:04:29;13.68;;;8.70;;
50337;SDS011;46221;51.178;5.900;2023-02-15T15:07:14;12.77;;;7.70;;
50337;SDS011;46221;51.178;5.900;2023-02-15T15:09:46;10.75;;;7.90;;
50337;SDS011;46221;51.178;5.900;2023-02-15T15:14:53;11.00;;;7.88;;
50337;SDS011;46221;51.178;5.900;2023-02-15T15:20:00;11.57;;;7.40;;
50337;SDS011;46221;51.178;5.900;2023-02-15T15:22:27;10.23;;;7.35;;
50337;SDS011;46221;51.178;5.900;2023-02-15T15:24:57;10.35;;;7.22;;
50337;SDS011;46221;51.178;5.900;2023-02-15T15:32:48;9.80;;;7.15;;
50337;SDS011;46221;51.178;5.900;2023-02-15T15:41:40;12.00;;;7.07;;
50337;SDS011;46221;51.178;5.900;2023-02-15T15:49:57;10.15;;;6.65;;
50337;SDS011;46221;51.178;5.900;2023-02-15T15:52:25;10.30;;;6.78;;
50337;SDS011;46221;51.178;5.900;2023-02-15T15:54:55;8.70;;;6.03;;
50337;SDS011;46221;51.178;5.900;2023-02-15T15:57:29;10.45;;;6.35;;
50337;SDS011;46221;51.178;5.900;2023-02-15T15:59:59;11.52;;;6.97;;
50337;SDS011;46221;51.178;5.900;2023-02-15T16:02:26;10.48;;;7.07;;
50337;SDS011;46221;51.178;5.900;2023-02-15T16:04:53;8.25;;;6.05;;
50337;SDS011;46221;51.178;5.900;2023-02-15T16:12:25;10.60;;;6.78;;
50337;SDS011;46221;51.178;5.900;2023-02-15T16:14:54;10.23;;;6.18;;
50337;SDS011;46221;51.178;5.900;2023-02-15T16:17:23;11.40;;;6.82;;
50337;SDS011;46221;51.178;5.900;2023-02-15T16:19:53;10.20;;;6.50;;
50337;SDS011;46221;51.178;5.900;2023-02-15T16:22:29;10.93;;;7.03;;
50337;SDS011;46221;51.178;5.900;2023-02-15T16:25:14;10.52;;;6.45;;
50337;SDS011;46221;51.178;5.900;2023-02-15T16:28:05;9.48;;;6.53;;
50337;SDS011;46221;51.178;5.900;2023-02-15T16:30:34;14.27;;;6.57;;
50337;SDS011;46221;51.178;5.900;2023-02-15T16:33:07;9.23;;;6.40;;
50337;SDS011;46221;51.178;5.900;2023-02-15T16:35:37;10.85;;;7.18;;
50337;SDS011;46221;51.178;5.900;2023-02-15T16:38:30;12.68;;;8.27;;
50337;SDS011;46221;51.178;5.900;2023-02-15T16:41:21;13.52;;;7.63;;
50337;SDS011;46221;51.178;5.900;2023-02-15T16:43:50;13.00;;;8.30;;
50337;SDS011;46221;51.178;5.900;2023-02-15T16:46:22;15.30;;;8.25;;
50337;SDS011;46221;51.178;5.900;2023-02-15T16:48:51;12.30;;;8.75;;
50337;SDS011;46221;51.178;5.900;2023-02-15T16:51:20;12.27;;;7.93;;
50337;SDS011;46221;51.178;5.900;2023-02-15T16:53:51;12.63;;;7.93;;
50337;SDS011;46221;51.178;5.900;2023-02-15T16:56:22;12.43;;;7.93;;
50337;SDS011;46221;51.178;5.900;2023-02-15T16:58:51;11.10;;;8.05;;
50337;SDS011;46221;51.178;5.900;2023-02-15T17:01:21;13.25;;;8.43;;
50337;SDS011;46221;51.178;5.900;2023-02-15T17:03:50;12.50;;;8.40;;
50337;SDS011;46221;51.178;5.900;2023-02-15T17:06:36;13.70;;;7.88;;
50337;SDS011;46221;51.178;5.900;2023-02-15T17:09:03;13.43;;;8.38;;
50337;SDS011;46221;51.178;5.900;2023-02-15T17:11:35;14.73;;;7.90;;
50337;SDS011;46221;51.178;5.900;2023-02-15T17:19:19;12.27;;;8.38;;
50337;SDS011;46221;51.178;5.900;2023-02-15T17:21:50;12.25;;;8.00;;
50337;SDS011;46221;51.178;5.900;2023-02-15T17:24:24;11.10;;;7.57;;
50337;SDS011;46221;51.178;5.900;2023-02-15T17:27:00;11.30;;;7.63;;
50337;SDS011;46221;51.178;5.900;2023-02-15T17:29:40;14.15;;;8.52;;
50337;SDS011;46221;51.178;5.900;2023-02-15T17:32:18;12.63;;;8.40;;
50337;SDS011;46221;51.178;5.900;2023-02-15T17:40:16;11.77;;;7.85;;
50337;SDS011;46221;51.178;5.900;2023-02-15T17:42:48;12.27;;;8.23;;
50337;SDS011;46221;51.178;5.900;2023-02-15T17:45:15;11.68;;;8.05;;
50337;SDS011;46221;51.178;5.900;2023-02-15T17:47:42;11.18;;;7.90;;
50337;SDS011;46221;51.178;5.900;2023-02-15T17:50:15;13.27;;;8.55;;
50337;SDS011;46221;51.178;5.900;2023-02-15T17:55:13;10.93;;;7.80;;
50337;SDS011;46221;51.178;5.900;2023-02-15T17:58:01;12.85;;;8.23;;
50337;SDS011;46221;51.178;5.900;2023-02-15T18:00:29;15.40;;;8.57;;
50337;SDS011;46221;51.178;5.900;2023-02-15T18:03:15;12.73;;;9.05;;
50337;SDS011;46221;51.178;5.900;2023-02-15T18:06:01;12.90;;;8.20;;
50337;SDS011;46221;51.178;5.900;2023-02-15T18:08:47;12.32;;;7.95;;
50337;SDS011;46221;51.178;5.900;2023-02-15T18:11:32;13.57;;;8.32;;
50337;SDS011;46221;51.178;5.900;2023-02-15T18:14:04;11.75;;;8.02;;
50337;SDS011;46221;51.178;5.900;2023-02-15T18:16:33;11.93;;;7.93;;
50337;SDS011;46221;51.178;5.900;2023-02-15T18:19:02;13.95;;;8.63;;
50337;SDS011;46221;51.178;5.900;2023-02-15T18:21:31;13.80;;;9.10;;
50337;SDS011;46221;51.178;5.900;2023-02-15T18:23:58;13.02;;;8.80;;
50337;SDS011;46221;51.178;5.900;2023-02-15T18:26:25;13.30;;;8.75;;